createdAt,value
2016-08-10T00:00:48.136Z,0
2016-08-10T00:02:01.103Z,0
2016-08-10T00:03:14.083Z,0
2016-08-10T00:04:27.256Z,0
2016-08-10T00:05:40.618Z,0
2016-08-10T00:06:53.592Z,0
2016-08-10T00:08:06.557Z,0
2016-08-10T00:09:19.534Z,0
2016-08-10T00:10:32.502Z,0
2016-08-10T00:11:45.485Z,0
2016-08-10T00:12:58.467Z,0
2016-08-10T00:14:11.442Z,0
2016-08-10T00:15:24.415Z,0
2016-08-10T00:16:37.388Z,0
2016-08-10T00:17:50.374Z,0
2016-08-10T00:19:03.532Z,0
2016-08-10T00:20:16.523Z,0
2016-08-10T00:21:29.493Z,0
2016-08-10T00:22:41.737Z,0
2016-08-10T00:23:54.911Z,0
2016-08-10T00:25:07.886Z,0
2016-08-10T00:26:20.855Z,0
2016-08-10T00:27:33.824Z,0
2016-08-10T00:28:46.783Z,0
2016-08-10T00:29:59.953Z,0
2016-08-10T00:31:12.919Z,0
2016-08-10T00:32:25.882Z,0
2016-08-10T00:33:38.840Z,0
2016-08-10T00:34:51.816Z,0
2016-08-10T00:36:04.782Z,0
2016-08-10T00:37:17.758Z,0
2016-08-10T00:38:30.721Z,0
2016-08-10T00:39:43.684Z,0
2016-08-10T00:40:56.652Z,0
2016-08-10T00:42:09.622Z,0
2016-08-10T00:43:22.594Z,0
2016-08-10T00:44:35.771Z,0
2016-08-10T00:45:48.948Z,0
2016-08-10T00:47:01.913Z,0
2016-08-10T00:48:14.889Z,0
2016-08-10T00:49:27.858Z,0
2016-08-10T00:50:40.836Z,0
2016-08-10T00:51:53.811Z,0
2016-08-10T00:53:06.774Z,0
2016-08-10T00:54:19.744Z,0
2016-08-10T00:55:32.713Z,0
2016-08-10T00:56:45.682Z,0
2016-08-10T00:57:58.649Z,0
2016-08-10T00:59:11.639Z,0
2016-08-10T01:00:25.014Z,0
2016-08-10T01:01:37.987Z,0
2016-08-10T01:02:50.959Z,0
2016-08-10T01:04:03.921Z,0
2016-08-10T01:05:16.891Z,0
2016-08-10T01:06:30.060Z,0
2016-08-10T01:08:54.133Z,0
2016-08-10T01:10:07.318Z,0
2016-08-10T01:11:20.291Z,0
2016-08-10T01:12:33.252Z,0
2016-08-10T01:13:46.223Z,0
2016-08-10T01:14:59.188Z,0
2016-08-10T01:16:12.159Z,0
2016-08-10T01:17:25.133Z,0
2016-08-10T01:18:38.110Z,0
2016-08-10T01:19:51.281Z,0
2016-08-10T01:21:04.264Z,0
2016-08-10T01:22:17.441Z,0
2016-08-10T01:23:30.405Z,0
2016-08-10T01:24:43.372Z,0
2016-08-10T01:25:56.331Z,0
2016-08-10T01:27:09.497Z,0
2016-08-10T01:28:22.461Z,0
2016-08-10T01:29:35.421Z,0
2016-08-10T01:30:48.581Z,0
2016-08-10T01:32:01.555Z,0
2016-08-10T01:33:14.530Z,0
2016-08-10T01:34:27.709Z,0
2016-08-10T01:35:40.675Z,0
2016-08-10T01:36:53.645Z,0
2016-08-10T01:38:06.152Z,0
2016-08-10T01:39:19.115Z,0
2016-08-10T01:40:32.091Z,0
2016-08-10T01:41:45.068Z,0
2016-08-10T01:42:58.034Z,0
2016-08-10T01:44:11.000Z,0
2016-08-10T01:45:23.968Z,0
2016-08-10T01:46:36.941Z,0
2016-08-10T01:47:49.913Z,0
2016-08-10T01:49:02.905Z,0
2016-08-10T01:50:16.070Z,0
2016-08-10T01:51:29.437Z,0
2016-08-10T01:52:42.406Z,0
2016-08-10T01:53:55.380Z,0
2016-08-10T01:55:08.342Z,0
2016-08-10T01:56:21.318Z,0
2016-08-10T01:57:34.686Z,0
2016-08-10T01:58:47.660Z,0
2016-08-10T02:00:00.629Z,0
2016-08-10T02:01:13.606Z,0
2016-08-10T02:02:26.593Z,0
2016-08-10T02:03:39.566Z,0
2016-08-10T02:04:52.739Z,0
2016-08-10T02:06:05.722Z,0
2016-08-10T02:07:18.695Z,0
2016-08-10T02:08:31.659Z,0
2016-08-10T02:09:44.645Z,0
2016-08-10T02:10:57.620Z,0
2016-08-10T02:12:10.595Z,0
2016-08-10T02:13:23.561Z,0
2016-08-10T02:14:36.535Z,0
2016-08-10T02:15:49.504Z,0
2016-08-10T02:17:02.467Z,0
2016-08-10T02:18:15.430Z,0
2016-08-10T02:19:28.399Z,0
2016-08-10T02:20:41.369Z,0
2016-08-10T02:21:54.333Z,0
2016-08-10T02:24:18.876Z,0
2016-08-10T02:25:32.076Z,0
2016-08-10T02:26:45.038Z,0
2016-08-10T02:27:58.020Z,0
2016-08-10T02:29:11.197Z,0
2016-08-10T02:30:24.168Z,0
2016-08-10T02:31:37.140Z,0
2016-08-10T02:32:50.107Z,0
2016-08-10T02:34:03.284Z,0
2016-08-10T02:35:16.253Z,0
2016-08-10T02:36:29.429Z,0
2016-08-10T02:37:42.401Z,0
2016-08-10T02:38:55.365Z,0
2016-08-10T02:40:08.326Z,0
2016-08-10T02:41:21.307Z,0
2016-08-10T02:42:34.278Z,0
2016-08-10T02:43:47.253Z,0
2016-08-10T02:45:00.429Z,0
2016-08-10T02:46:13.396Z,0
2016-08-10T02:47:26.358Z,0
2016-08-10T02:48:39.326Z,0
2016-08-10T02:49:52.493Z,0
2016-08-10T02:51:05.455Z,0
2016-08-10T02:52:18.429Z,0
2016-08-10T02:53:30.935Z,0
2016-08-10T02:54:44.107Z,0
2016-08-10T02:55:57.077Z,0
2016-08-10T02:57:10.259Z,0
2016-08-10T02:58:23.241Z,0
2016-08-10T02:59:36.225Z,0
2016-08-10T03:00:49.200Z,0
2016-08-10T03:02:02.176Z,0
2016-08-10T03:03:15.141Z,0
2016-08-10T03:04:28.106Z,0
2016-08-10T03:05:41.074Z,0
2016-08-10T03:06:54.036Z,0
2016-08-10T03:08:07.003Z,0
2016-08-10T03:09:19.974Z,0
2016-08-10T03:10:32.939Z,0
2016-08-10T03:11:45.906Z,0
2016-08-10T03:12:59.063Z,0
2016-08-10T03:14:12.033Z,0
2016-08-10T03:15:24.994Z,0
2016-08-10T03:16:37.969Z,0
2016-08-10T03:17:51.140Z,0
2016-08-10T03:19:04.311Z,0
2016-08-10T03:20:17.280Z,0
2016-08-10T03:21:30.259Z,0
2016-08-10T03:22:43.225Z,0
2016-08-10T03:23:56.204Z,0
2016-08-10T03:25:09.165Z,0
2016-08-10T03:26:22.333Z,0
2016-08-10T03:27:35.499Z,0
2016-08-10T03:28:48.478Z,0
2016-08-10T03:30:01.452Z,0
2016-08-10T03:31:14.625Z,0
2016-08-10T03:32:27.586Z,0
2016-08-10T03:33:40.555Z,0
2016-08-10T03:34:53.527Z,0
2016-08-10T03:36:06.494Z,0
2016-08-10T03:37:19.457Z,0
2016-08-10T03:38:30.563Z,0
2016-08-10T03:39:43.723Z,0
2016-08-10T03:40:56.686Z,0
2016-08-10T03:42:09.657Z,0
2016-08-10T03:43:22.622Z,0
2016-08-10T03:44:35.601Z,0
2016-08-10T03:45:48.768Z,0
2016-08-10T03:47:01.730Z,0
2016-08-10T03:48:14.705Z,0
2016-08-10T03:49:27.873Z,0
2016-08-10T03:50:40.843Z,0
2016-08-10T03:51:53.813Z,0
2016-08-10T03:53:06.788Z,0
2016-08-10T03:54:19.755Z,0
2016-08-10T03:55:32.720Z,0
2016-08-10T03:56:45.687Z,0
2016-08-10T03:57:58.845Z,0
2016-08-10T03:59:12.022Z,0
2016-08-10T04:00:25.199Z,0
2016-08-10T04:01:38.386Z,0
2016-08-10T04:02:51.379Z,0
2016-08-10T04:04:04.350Z,0
2016-08-10T04:05:17.329Z,0
2016-08-10T04:06:30.290Z,0
2016-08-10T04:07:43.257Z,0
2016-08-10T04:08:56.218Z,0
2016-08-10T04:10:09.383Z,0
2016-08-10T04:11:22.359Z,0
2016-08-10T04:12:35.325Z,0
2016-08-10T04:13:48.285Z,0
2016-08-10T04:15:01.302Z,0
2016-08-10T04:16:14.267Z,0
2016-08-10T04:17:27.244Z,5
2016-08-10T04:18:40.210Z,5
2016-08-10T04:19:53.198Z,5
2016-08-10T04:21:06.175Z,5
2016-08-10T04:22:19.157Z,5
2016-08-10T04:24:43.712Z,5
2016-08-10T04:25:56.687Z,5
2016-08-10T04:27:09.654Z,5
2016-08-10T04:28:22.618Z,5
2016-08-10T04:29:35.584Z,5
2016-08-10T04:30:48.560Z,10
2016-08-10T04:32:01.534Z,10
2016-08-10T04:33:14.503Z,10
2016-08-10T04:34:27.480Z,10
2016-08-10T04:35:40.847Z,10
2016-08-10T04:36:53.820Z,15
2016-08-10T04:38:06.814Z,15
2016-08-10T04:39:19.780Z,20
2016-08-10T04:40:32.749Z,20
2016-08-10T04:41:45.713Z,20
2016-08-10T04:42:58.678Z,20
2016-08-10T04:44:11.643Z,20
2016-08-10T04:45:24.611Z,20
2016-08-10T04:46:37.586Z,20
2016-08-10T04:47:50.771Z,25
2016-08-10T04:49:03.739Z,30
2016-08-10T04:50:16.706Z,30
2016-08-10T04:51:29.673Z,30
2016-08-10T04:52:42.639Z,30
2016-08-10T04:53:55.612Z,30
2016-08-10T04:55:08.608Z,35
2016-08-10T04:56:21.574Z,40
2016-08-10T04:57:34.542Z,40
2016-08-10T04:58:47.508Z,40
2016-08-10T05:00:00.475Z,50
2016-08-10T05:01:13.457Z,60
2016-08-10T05:02:26.421Z,65
2016-08-10T05:03:39.394Z,70
2016-08-10T05:04:52.359Z,75
2016-08-10T05:06:05.345Z,65
2016-08-10T05:07:18.320Z,55
2016-08-10T05:09:43.817Z,40
2016-08-10T05:10:56.781Z,40
2016-08-10T05:12:09.754Z,35
2016-08-10T05:13:22.720Z,35
2016-08-10T05:14:35.696Z,35
2016-08-10T05:15:48.663Z,35
2016-08-10T05:17:01.636Z,40
2016-08-10T05:18:14.598Z,40
2016-08-10T05:19:27.563Z,40
2016-08-10T05:20:40.741Z,45
2016-08-10T05:21:53.713Z,50
2016-08-10T05:23:06.680Z,60
2016-08-10T05:24:19.648Z,65
2016-08-10T05:25:32.615Z,65
2016-08-10T05:26:45.605Z,60
2016-08-10T05:27:58.583Z,60
2016-08-10T05:29:11.552Z,60
2016-08-10T05:30:24.516Z,60
2016-08-10T05:31:37.483Z,65
2016-08-10T05:32:50.461Z,65
2016-08-10T05:34:03.429Z,65
2016-08-10T05:35:16.598Z,70
2016-08-10T05:36:29.767Z,70
2016-08-10T05:37:42.733Z,75
2016-08-10T05:40:06.888Z,70
2016-08-10T05:41:19.927Z,70
2016-08-10T05:42:32.922Z,70
2016-08-10T05:43:45.883Z,90
2016-08-10T05:44:59.048Z,115
2016-08-10T05:46:12.033Z,150
2016-08-10T05:47:25.008Z,170
2016-08-10T05:48:38.181Z,180
2016-08-10T05:49:51.154Z,180
2016-08-10T05:51:04.124Z,185
2016-08-10T05:52:17.100Z,200
2016-08-10T05:53:30.072Z,215
2016-08-10T05:54:43.037Z,220
2016-08-10T05:55:56.010Z,220
2016-08-10T05:57:09.183Z,210
2016-08-10T05:58:22.362Z,200
2016-08-10T05:59:35.330Z,195
2016-08-10T06:00:48.305Z,200
2016-08-10T06:02:01.479Z,210
2016-08-10T06:03:14.449Z,215
2016-08-10T06:04:27.414Z,230
2016-08-10T06:05:40.590Z,235
2016-08-10T06:06:53.559Z,240
2016-08-10T06:08:06.732Z,235
2016-08-10T06:09:19.707Z,240
2016-08-10T06:10:32.691Z,235
2016-08-10T06:11:45.668Z,230
2016-08-10T06:12:58.639Z,235
2016-08-10T06:14:11.618Z,255
2016-08-10T06:15:24.602Z,275
2016-08-10T06:16:37.565Z,290
2016-08-10T06:17:50.559Z,295
2016-08-10T06:19:03.524Z,290
2016-08-10T06:20:16.491Z,290
2016-08-10T06:21:29.457Z,310
2016-08-10T06:22:42.427Z,340
2016-08-10T06:23:55.399Z,380
2016-08-10T06:25:08.371Z,410
2016-08-10T06:26:21.544Z,430
2016-08-10T06:27:34.520Z,450
2016-08-10T06:28:47.503Z,400
2016-08-10T06:30:00.662Z,370
2016-08-10T06:31:13.629Z,355
2016-08-10T06:32:26.591Z,370
2016-08-10T06:33:39.553Z,375
2016-08-10T06:34:52.528Z,395
2016-08-10T06:36:05.505Z,425
2016-08-10T06:37:18.479Z,445
2016-08-10T06:38:31.464Z,410
2016-08-10T06:39:44.439Z,540
2016-08-10T06:40:57.411Z,660
2016-08-10T06:42:10.390Z,645
2016-08-10T06:43:23.354Z,800
2016-08-10T06:44:36.334Z,910
2016-08-10T06:45:49.512Z,785
2016-08-10T06:47:02.516Z,1235
2016-08-10T06:48:15.487Z,1055
2016-08-10T06:49:28.466Z,1370
2016-08-10T06:50:41.684Z,1910
2016-08-10T06:51:54.296Z,1540
2016-08-10T06:53:07.281Z,1975
2016-08-10T06:55:31.843Z,1860
2016-08-10T06:56:44.821Z,1800
2016-08-10T06:57:57.810Z,1825
2016-08-10T06:59:10.987Z,1955
2016-08-10T07:00:23.963Z,2090
2016-08-10T07:01:36.945Z,2080
2016-08-10T07:02:49.915Z,1930
2016-08-10T07:04:02.893Z,2125
2016-08-10T07:05:16.080Z,1990
2016-08-10T07:06:29.067Z,1935
2016-08-10T07:07:42.048Z,1820
2016-08-10T07:08:55.030Z,1760
2016-08-10T07:10:08.029Z,1955
2016-08-10T07:11:21.011Z,2085
2016-08-10T07:12:33.993Z,2120
2016-08-10T07:13:46.973Z,1995
2016-08-10T07:14:59.971Z,1895
2016-08-10T07:16:12.957Z,1955
2016-08-10T07:17:25.940Z,1920
2016-08-10T07:18:39.126Z,1955
2016-08-10T07:19:52.110Z,1915
2016-08-10T07:21:05.109Z,1920
2016-08-10T07:22:18.090Z,1930
2016-08-10T07:23:31.087Z,2040
2016-08-10T07:24:44.077Z,2065
2016-08-10T07:25:57.065Z,2020
2016-08-10T07:27:10.060Z,1710
2016-08-10T07:28:23.049Z,1945
2016-08-10T07:29:36.242Z,1955
2016-08-10T07:30:49.223Z,2025
2016-08-10T07:32:02.213Z,2050
2016-08-10T07:33:15.420Z,2070
2016-08-10T07:34:28.610Z,2145
2016-08-10T07:35:41.602Z,1970
2016-08-10T07:36:54.587Z,2035
2016-08-10T07:38:07.574Z,2255
2016-08-10T07:40:33.083Z,835
2016-08-10T07:41:46.064Z,2220
2016-08-10T07:42:59.267Z,1040
2016-08-10T07:44:12.260Z,1965
2016-08-10T07:45:25.264Z,1985
2016-08-10T07:46:38.257Z,2115
2016-08-10T07:47:51.242Z,720
2016-08-10T07:49:04.427Z,2205
2016-08-10T07:50:17.424Z,2165
2016-08-10T07:51:30.816Z,445
2016-08-10T07:52:43.817Z,335
2016-08-10T07:53:57.013Z,760
2016-08-10T07:55:10.008Z,2100
2016-08-10T07:56:23.197Z,2055
2016-08-10T07:57:36.194Z,435
2016-08-10T07:58:49.180Z,2065
2016-08-10T08:00:02.171Z,2025
2016-08-10T08:01:15.373Z,2025
2016-08-10T08:02:28.368Z,2035
2016-08-10T08:03:41.360Z,1070
2016-08-10T08:04:54.351Z,2030
2016-08-10T08:06:07.339Z,2000
2016-08-10T08:07:20.326Z,2010
2016-08-10T08:08:33.524Z,2120
2016-08-10T08:09:46.513Z,1915
2016-08-10T08:10:59.505Z,1995
2016-08-10T08:12:12.520Z,2100
2016-08-10T08:13:25.520Z,2180
2016-08-10T08:14:38.522Z,375
2016-08-10T08:15:51.563Z,340
2016-08-10T08:17:04.560Z,365
2016-08-10T08:18:17.550Z,450
2016-08-10T08:19:30.539Z,380
2016-08-10T08:20:43.519Z,2145
2016-08-10T08:21:56.513Z,2200
2016-08-10T08:23:09.698Z,2230
2016-08-10T08:25:34.755Z,450
2016-08-10T08:26:47.744Z,2165
2016-08-10T08:28:00.737Z,2225
2016-08-10T08:29:13.727Z,2275
2016-08-10T08:30:26.720Z,1645
2016-08-10T08:31:39.710Z,2275
2016-08-10T08:32:52.704Z,2355
2016-08-10T08:34:05.897Z,2335
2016-08-10T08:35:18.897Z,415
2016-08-10T08:36:31.889Z,460
2016-08-10T08:37:44.883Z,2205
2016-08-10T08:38:57.869Z,2230
2016-08-10T08:40:10.866Z,2135
2016-08-10T08:41:24.077Z,1720
2016-08-10T08:42:37.072Z,2290
2016-08-10T08:43:50.463Z,2225
2016-08-10T08:45:03.466Z,2075
2016-08-10T08:46:16.672Z,2160
2016-08-10T08:47:29.663Z,1610
2016-08-10T08:48:42.646Z,530
2016-08-10T08:49:55.640Z,1570
2016-08-10T08:51:08.836Z,520
2016-08-10T08:52:21.827Z,400
2016-08-10T08:53:34.812Z,2190
2016-08-10T08:54:47.804Z,2155
2016-08-10T08:56:01.001Z,455
2016-08-10T08:57:14.002Z,1680
2016-08-10T08:58:26.984Z,405
2016-08-10T08:59:39.977Z,2175
2016-08-10T09:00:52.978Z,2165
2016-08-10T09:02:06.161Z,2210
2016-08-10T09:03:19.157Z,2080
2016-08-10T09:04:32.139Z,2180
2016-08-10T09:05:45.327Z,2210
2016-08-10T09:06:58.318Z,2210
2016-08-10T09:08:11.304Z,540
2016-08-10T09:10:37.019Z,2175
2016-08-10T09:11:50.016Z,2215
2016-08-10T09:13:03.004Z,2260
2016-08-10T09:14:16.194Z,1395
2016-08-10T09:15:29.236Z,2235
2016-08-10T09:16:42.226Z,2295
2016-08-10T09:17:55.239Z,2285
2016-08-10T09:19:08.230Z,2230
2016-08-10T09:20:21.413Z,2230
2016-08-10T09:21:34.605Z,2375
2016-08-10T09:22:47.599Z,2320
2016-08-10T09:24:00.591Z,2355
2016-08-10T09:25:13.594Z,2315
2016-08-10T09:26:26.600Z,2440
2016-08-10T09:27:39.599Z,1715
2016-08-10T09:28:52.594Z,2225
2016-08-10T09:30:05.592Z,2185
2016-08-10T09:31:18.588Z,1475
2016-08-10T09:32:31.581Z,2250
2016-08-10T09:33:44.771Z,2195
2016-08-10T09:34:57.770Z,415
2016-08-10T09:36:10.763Z,490
2016-08-10T09:37:23.761Z,2245
2016-08-10T09:38:36.758Z,380
2016-08-10T09:39:48.822Z,445
2016-08-10T09:41:02.016Z,2025
2016-08-10T09:42:15.017Z,2015
2016-08-10T09:43:28.010Z,2280
2016-08-10T09:44:41.001Z,805
2016-08-10T09:45:53.989Z,1975
2016-08-10T09:47:07.185Z,1755
2016-08-10T09:48:20.179Z,500
2016-08-10T09:49:33.172Z,305
2016-08-10T09:50:46.169Z,305
2016-08-10T09:51:59.161Z,310
2016-08-10T09:53:12.165Z,2090
2016-08-10T09:54:25.148Z,2145
2016-08-10T09:55:38.160Z,2085
2016-08-10T09:56:51.356Z,2135
2016-08-10T09:58:04.345Z,2145
2016-08-10T09:59:17.338Z,2195
2016-08-10T10:00:30.335Z,2125
2016-08-10T10:01:43.324Z,2215
2016-08-10T10:02:56.314Z,2120
2016-08-10T10:04:09.308Z,2080
2016-08-10T10:05:22.501Z,2050
2016-08-10T10:06:35.489Z,2120
2016-08-10T10:07:48.502Z,2120
2016-08-10T10:09:01.900Z,2245
2016-08-10T10:10:14.893Z,2280
2016-08-10T10:11:28.089Z,890
2016-08-10T10:12:41.081Z,950
2016-08-10T10:13:54.283Z,2245
2016-08-10T10:15:07.479Z,1255
2016-08-10T10:16:20.526Z,1855
2016-08-10T10:17:33.525Z,565
2016-08-10T10:18:46.521Z,2385
2016-08-10T10:19:59.514Z,2475
2016-08-10T10:21:12.506Z,2585
2016-08-10T10:22:25.500Z,315
2016-08-10T10:23:38.692Z,260
2016-08-10T10:26:03.742Z,255
2016-08-10T10:27:16.735Z,295
2016-08-10T10:28:29.722Z,390
2016-08-10T10:29:42.714Z,340
2016-08-10T10:30:55.878Z,330
2016-08-10T10:32:09.068Z,340
2016-08-10T10:33:22.055Z,405
2016-08-10T10:34:35.048Z,1005
2016-08-10T10:35:48.030Z,1120
2016-08-10T10:37:01.214Z,1190
2016-08-10T10:38:14.209Z,725
2016-08-10T10:39:27.208Z,1155
2016-08-10T10:40:40.190Z,480
2016-08-10T10:41:53.379Z,380
2016-08-10T10:43:06.359Z,360
2016-08-10T10:44:19.357Z,360
2016-08-10T10:45:32.378Z,385
2016-08-10T10:46:45.571Z,535
2016-08-10T10:47:58.557Z,455
2016-08-10T10:49:11.552Z,480
2016-08-10T10:50:24.535Z,545
2016-08-10T10:51:37.526Z,515
2016-08-10T10:52:50.718Z,520
2016-08-10T10:54:03.710Z,425
2016-08-10T10:55:16.699Z,370
2016-08-10T10:56:29.678Z,300
2016-08-10T10:57:42.671Z,250
2016-08-10T10:58:55.667Z,210
2016-08-10T11:00:08.652Z,180
2016-08-10T11:01:21.856Z,160
2016-08-10T11:02:35.044Z,165
2016-08-10T11:03:48.231Z,210
2016-08-10T11:05:01.219Z,245
2016-08-10T11:06:14.197Z,420
2016-08-10T11:07:27.174Z,415
2016-08-10T11:08:40.158Z,555
2016-08-10T11:09:53.143Z,510
2016-08-10T11:11:06.133Z,475
2016-08-10T11:12:19.114Z,520
2016-08-10T11:13:32.111Z,765
2016-08-10T11:14:45.101Z,805
2016-08-10T11:15:58.282Z,1090
2016-08-10T11:17:11.517Z,895
2016-08-10T11:18:24.503Z,1100
2016-08-10T11:19:37.506Z,705
2016-08-10T11:20:50.689Z,710
2016-08-10T11:22:03.676Z,1550
2016-08-10T11:23:16.859Z,1520
2016-08-10T11:24:30.039Z,1030
2016-08-10T11:25:43.024Z,1390
2016-08-10T11:26:56.009Z,890
2016-08-10T11:28:08.989Z,930
2016-08-10T11:29:22.181Z,805
2016-08-10T11:30:35.376Z,1025
2016-08-10T11:31:48.359Z,605
2016-08-10T11:33:01.338Z,535
2016-08-10T11:34:14.330Z,490
2016-08-10T11:35:27.327Z,470
2016-08-10T11:36:40.310Z,485
2016-08-10T11:37:53.291Z,520
2016-08-10T11:39:06.266Z,585
2016-08-10T11:41:31.052Z,775
2016-08-10T11:42:44.040Z,645
2016-08-10T11:43:57.022Z,645
2016-08-10T11:45:10.414Z,785
2016-08-10T11:46:23.393Z,1105
2016-08-10T11:47:36.372Z,1180
2016-08-10T11:48:49.358Z,1680
2016-08-10T11:50:02.336Z,1565
2016-08-10T11:51:15.320Z,1215
2016-08-10T11:52:28.305Z,1110
2016-08-10T11:53:41.307Z,1570
2016-08-10T11:54:54.282Z,690
2016-08-10T11:56:07.270Z,1465
2016-08-10T11:57:20.457Z,1460
2016-08-10T11:58:33.638Z,1430
2016-08-10T11:59:46.769Z,1350
2016-08-10T12:00:59.753Z,1350
2016-08-10T12:02:12.740Z,1340
2016-08-10T12:03:25.722Z,1315
2016-08-10T12:04:38.706Z,1290
2016-08-10T12:05:51.899Z,1260
2016-08-10T12:07:04.889Z,1220
2016-08-10T12:08:17.879Z,1180
2016-08-10T12:09:30.862Z,1185
2016-08-10T12:10:43.853Z,1180
2016-08-10T12:11:56.832Z,1185
2016-08-10T12:13:09.820Z,1190
2016-08-10T12:14:22.813Z,1165
2016-08-10T12:15:35.812Z,1120
2016-08-10T12:16:48.817Z,1095
2016-08-10T12:18:01.809Z,1095
2016-08-10T12:19:14.796Z,1110
2016-08-10T12:20:27.780Z,1115
2016-08-10T12:21:40.759Z,290
2016-08-10T12:22:53.941Z,1125
2016-08-10T12:24:06.930Z,1085
2016-08-10T12:26:32.380Z,1100
2016-08-10T12:27:45.364Z,1055
2016-08-10T12:28:58.366Z,1065
2016-08-10T12:30:11.351Z,235
2016-08-10T12:31:24.351Z,305
2016-08-10T12:32:37.344Z,1040
2016-08-10T12:33:50.326Z,445
2016-08-10T12:35:03.520Z,255
2016-08-10T12:36:16.502Z,335
2016-08-10T12:37:29.495Z,800
2016-08-10T12:38:42.481Z,920
2016-08-10T12:39:55.676Z,725
2016-08-10T12:41:08.859Z,295
2016-08-10T12:42:21.839Z,270
2016-08-10T12:43:34.831Z,265
2016-08-10T12:44:47.816Z,355
2016-08-10T12:46:00.801Z,275
2016-08-10T12:47:13.779Z,245
2016-08-10T12:48:26.761Z,215
2016-08-10T12:49:39.742Z,205
2016-08-10T12:50:52.723Z,215
2016-08-10T12:52:05.705Z,225
2016-08-10T12:53:18.888Z,240
2016-08-10T12:54:32.295Z,255
2016-08-10T12:55:45.276Z,265
2016-08-10T12:56:58.256Z,270
2016-08-10T12:58:11.244Z,275
2016-08-10T12:59:24.438Z,295
2016-08-10T13:00:37.428Z,315
2016-08-10T13:01:50.410Z,325
2016-08-10T13:03:03.405Z,350
2016-08-10T13:04:16.387Z,315
2016-08-10T13:05:29.573Z,300
2016-08-10T13:06:42.767Z,280
2016-08-10T13:07:55.752Z,285
2016-08-10T13:09:08.726Z,300
2016-08-10T13:11:33.762Z,330
2016-08-10T13:12:46.727Z,335
2016-08-10T13:13:59.703Z,350
2016-08-10T13:15:12.689Z,330
2016-08-10T13:16:25.666Z,345
2016-08-10T13:17:38.647Z,355
2016-08-10T13:18:51.826Z,375
2016-08-10T13:20:04.808Z,575
2016-08-10T13:21:17.785Z,585
2016-08-10T13:22:30.765Z,325
2016-08-10T13:23:43.735Z,295
2016-08-10T13:24:56.713Z,290
2016-08-10T13:26:09.696Z,295
2016-08-10T13:27:22.683Z,300
2016-08-10T13:28:35.657Z,310
2016-08-10T13:29:48.634Z,340
2016-08-10T13:31:01.819Z,470
2016-08-10T13:32:14.794Z,430
2016-08-10T13:33:27.783Z,400
2016-08-10T13:34:40.755Z,370
2016-08-10T13:35:53.734Z,340
2016-08-10T13:37:06.720Z,315
2016-08-10T13:38:19.701Z,305
2016-08-10T13:39:32.679Z,330
2016-08-10T13:40:45.658Z,365
2016-08-10T13:41:58.859Z,360
2016-08-10T13:43:12.039Z,325
2016-08-10T13:44:25.213Z,300
2016-08-10T13:45:38.179Z,270
2016-08-10T13:46:51.157Z,260
2016-08-10T13:48:04.340Z,275
2016-08-10T13:49:17.318Z,260
2016-08-10T13:50:30.295Z,240
2016-08-10T13:51:43.272Z,235
2016-08-10T13:52:56.261Z,235
2016-08-10T13:54:09.237Z,235
2016-08-10T13:55:22.211Z,230
2016-08-10T13:56:35.213Z,235
2016-08-10T13:57:48.189Z,230
2016-08-10T13:59:01.171Z,230
2016-08-10T14:00:14.155Z,230
2016-08-10T14:01:27.138Z,220
2016-08-10T14:02:40.122Z,220
2016-08-10T14:03:53.103Z,220
2016-08-10T14:05:06.278Z,220
2016-08-10T14:06:19.257Z,215
2016-08-10T14:07:32.238Z,215
2016-08-10T14:08:45.217Z,215
2016-08-10T14:09:58.184Z,215
2016-08-10T14:11:11.159Z,210
2016-08-10T14:12:24.135Z,210
2016-08-10T14:13:37.123Z,210
2016-08-10T14:14:50.302Z,210
2016-08-10T14:16:03.281Z,210
2016-08-10T14:17:16.311Z,205
2016-08-10T14:18:29.696Z,205
2016-08-10T14:19:42.684Z,205
2016-08-10T14:20:55.667Z,205
2016-08-10T14:22:08.645Z,210
2016-08-10T14:23:21.634Z,210
2016-08-10T14:24:34.629Z,210
2016-08-10T14:25:46.883Z,205
2016-08-10T14:26:59.856Z,205
2016-08-10T14:28:12.835Z,210
2016-08-10T14:29:25.841Z,215
2016-08-10T14:30:39.220Z,220
2016-08-10T14:31:52.217Z,145
2016-08-10T14:33:05.198Z,160
2016-08-10T14:34:18.196Z,170
2016-08-10T14:35:31.170Z,180
2016-08-10T14:36:44.347Z,155
2016-08-10T14:37:57.331Z,140
2016-08-10T14:39:10.322Z,105
2016-08-10T14:40:23.305Z,60
2016-08-10T14:41:36.283Z,45
2016-08-10T14:42:49.253Z,40
2016-08-10T14:44:02.243Z,40
2016-08-10T14:45:15.222Z,40
2016-08-10T14:46:28.205Z,45
2016-08-10T14:47:41.181Z,50
2016-08-10T14:48:54.168Z,45
2016-08-10T14:50:07.144Z,45
2016-08-10T14:51:20.120Z,40
2016-08-10T14:52:33.098Z,35
2016-08-10T14:53:46.080Z,35
2016-08-10T14:54:59.060Z,30
2016-08-10T14:56:12.032Z,30
2016-08-10T14:57:25.002Z,30
2016-08-10T14:58:37.976Z,35
2016-08-10T14:59:51.150Z,40
2016-08-10T15:01:04.127Z,45
2016-08-10T15:02:17.110Z,55
2016-08-10T15:03:30.087Z,65
2016-08-10T15:04:43.062Z,90
2016-08-10T15:05:56.032Z,100
2016-08-10T15:07:09.010Z,110
2016-08-10T15:08:22.181Z,125
2016-08-10T15:09:35.158Z,140
2016-08-10T15:12:00.641Z,185
2016-08-10T15:13:13.613Z,210
2016-08-10T15:14:26.589Z,235
2016-08-10T15:15:39.768Z,260
2016-08-10T15:16:52.759Z,265
2016-08-10T15:18:05.983Z,275
2016-08-10T15:19:18.952Z,280
2016-08-10T15:20:31.926Z,280
2016-08-10T15:21:44.901Z,275
2016-08-10T15:22:58.076Z,270
2016-08-10T15:24:11.047Z,260
2016-08-10T15:25:24.031Z,235
2016-08-10T15:26:37.007Z,215
2016-08-10T15:27:49.975Z,195
2016-08-10T15:29:02.957Z,170
2016-08-10T15:30:15.929Z,155
2016-08-10T15:31:29.150Z,150
2016-08-10T15:32:42.327Z,155
2016-08-10T15:33:55.318Z,170
2016-08-10T15:35:08.490Z,165
2016-08-10T15:36:21.467Z,170
2016-08-10T15:37:34.636Z,135
2016-08-10T15:38:47.817Z,130
2016-08-10T15:40:00.810Z,135
2016-08-10T15:41:12.855Z,120
2016-08-10T15:42:25.835Z,120
2016-08-10T15:43:38.817Z,120
2016-08-10T15:44:51.988Z,120
2016-08-10T15:46:04.974Z,115
2016-08-10T15:47:17.950Z,115
2016-08-10T15:48:30.921Z,115
2016-08-10T15:49:43.915Z,115
2016-08-10T15:50:56.900Z,110
2016-08-10T15:52:09.878Z,130
2016-08-10T15:53:22.860Z,150
2016-08-10T15:54:35.838Z,155
2016-08-10T15:55:48.838Z,155
2016-08-10T15:57:01.814Z,160
2016-08-10T15:58:14.785Z,160
2016-08-10T15:59:27.971Z,160
2016-08-10T16:00:41.149Z,160
2016-08-10T16:01:54.327Z,165
2016-08-10T16:03:07.300Z,170
2016-08-10T16:04:20.274Z,180
2016-08-10T16:05:33.447Z,175
2016-08-10T16:06:46.432Z,180
2016-08-10T16:07:59.414Z,145
2016-08-10T16:09:12.393Z,150
2016-08-10T16:10:25.378Z,125
2016-08-10T16:11:38.356Z,120
2016-08-10T16:12:51.332Z,120
2016-08-10T16:14:04.307Z,120
2016-08-10T16:15:17.284Z,110
2016-08-10T16:16:30.260Z,105
2016-08-10T16:17:43.284Z,105
2016-08-10T16:18:56.262Z,100
2016-08-10T16:20:09.253Z,95
2016-08-10T16:21:22.230Z,95
2016-08-10T16:22:35.211Z,95
2016-08-10T16:23:48.191Z,95
2016-08-10T16:25:01.167Z,90
2016-08-10T16:27:26.680Z,80
2016-08-10T16:28:39.668Z,75
2016-08-10T16:29:52.640Z,85
2016-08-10T16:31:05.625Z,100
2016-08-10T16:32:18.605Z,115
2016-08-10T16:33:31.576Z,125
2016-08-10T16:34:44.629Z,135
2016-08-10T16:35:57.599Z,140
2016-08-10T16:37:10.582Z,145
2016-08-10T16:38:23.549Z,145
2016-08-10T16:39:37.951Z,145
2016-08-10T16:40:50.929Z,145
2016-08-10T16:42:03.909Z,140
2016-08-10T16:43:16.889Z,140
2016-08-10T16:44:29.862Z,135
2016-08-10T16:45:42.843Z,125
2016-08-10T16:46:55.821Z,120
2016-08-10T16:48:08.797Z,120
2016-08-10T16:49:21.774Z,115
2016-08-10T16:50:34.950Z,115
2016-08-10T16:51:47.932Z,140
2016-08-10T16:53:00.900Z,125
2016-08-10T16:54:13.878Z,120
2016-08-10T16:55:26.851Z,120
2016-08-10T16:56:39.577Z,115
2016-08-10T16:57:52.760Z,110
2016-08-10T16:59:05.943Z,110
2016-08-10T17:00:18.928Z,105
2016-08-10T17:01:31.901Z,100
2016-08-10T17:02:44.875Z,100
2016-08-10T17:03:58.056Z,100
2016-08-10T17:05:11.029Z,100
2016-08-10T17:06:24.049Z,95
2016-08-10T17:07:37.035Z,95
2016-08-10T17:08:50.220Z,95
2016-08-10T17:10:03.200Z,90
2016-08-10T17:11:16.172Z,90
2016-08-10T17:12:29.133Z,85
2016-08-10T17:13:42.129Z,90
2016-08-10T17:14:55.094Z,85
2016-08-10T17:16:08.267Z,85
2016-08-10T17:17:21.437Z,80
2016-08-10T17:18:34.415Z,80